createdAt,value
2023-05-12T00:00:16.619Z,81.88
2023-05-12T00:02:46.302Z,95.32
2023-05-12T00:05:13.827Z,111.85
2023-05-12T00:07:41.248Z,112.13
2023-05-12T00:10:09.014Z,116.68
2023-05-12T00:12:36.552Z,114.07
2023-05-12T00:15:04.270Z,121.43
2023-05-12T00:17:32.750Z,120.05
2023-05-12T00:20:00.280Z,116.43
2023-05-12T00:22:27.907Z,110.25
2023-05-12T00:24:55.393Z,100.45
2023-05-12T00:27:23.032Z,105.53
2023-05-12T00:29:50.528Z,104.32
2023-05-12T00:32:18.085Z,120.72
2023-05-12T00:34:45.525Z,118.95
2023-05-12T00:37:13.202Z,127.50
2023-05-12T00:39:40.614Z,132.20
2023-05-12T00:42:08.438Z,127.85
2023-05-12T00:44:36.965Z,122.03
2023-05-12T00:47:05.357Z,115.10
2023-05-12T00:49:33.186Z,127.15
2023-05-12T00:52:02.521Z,128.02
2023-05-12T00:54:31.381Z,121.10
2023-05-12T00:56:59.364Z,114.45
2023-05-12T00:59:27.469Z,116.75
2023-05-12T01:01:54.998Z,116.93
2023-05-12T01:04:23.597Z,113.05
2023-05-12T01:07:07.049Z,111.93
2023-05-12T01:09:34.624Z,116.20
2023-05-12T01:12:02.864Z,110.25
2023-05-12T01:14:32.465Z,118.10
2023-05-12T01:17:03.826Z,95.50
2023-05-12T01:19:46.220Z,121.15
2023-05-12T01:22:15.529Z,107.05
2023-05-12T01:25:08.738Z,95.15
2023-05-12T01:27:40.136Z,119.25
2023-05-12T01:30:09.760Z,95.82
2023-05-12T01:32:39.065Z,98.82
2023-05-12T01:35:07.512Z,101.00
2023-05-12T01:37:37.303Z,117.55
2023-05-12T01:40:06.613Z,103.22
2023-05-12T01:42:34.240Z,99.85
2023-05-12T01:45:02.072Z,111.57
2023-05-12T01:47:30.580Z,111.38
2023-05-12T01:50:09.447Z,99.43
2023-05-12T01:52:42.546Z,114.88
2023-05-12T01:55:13.146Z,108.40
2023-05-12T01:58:00.900Z,108.30
2023-05-12T02:00:28.824Z,115.50
2023-05-12T02:02:58.703Z,117.45
2023-05-12T02:05:26.660Z,110.03
2023-05-12T02:07:54.625Z,115.45
2023-05-12T02:10:22.737Z,107.18
2023-05-12T02:12:50.488Z,101.35
2023-05-12T02:15:18.316Z,107.75
2023-05-12T02:17:47.261Z,115.13
2023-05-12T02:20:17.113Z,98.25
2023-05-12T02:22:44.753Z,104.78
2023-05-12T02:25:12.270Z,105.20
2023-05-12T02:27:40.315Z,94.65
2023-05-12T02:30:09.562Z,107.13
2023-05-12T02:32:37.300Z,92.88
2023-05-12T02:35:07.813Z,97.10
2023-05-12T02:37:37.128Z,95.43
2023-05-12T02:40:06.321Z,97.22
2023-05-12T02:42:36.510Z,91.47
2023-05-12T02:45:05.837Z,84.32
2023-05-12T02:47:34.809Z,87.20
2023-05-12T02:50:02.749Z,79.32
2023-05-12T02:52:32.187Z,78.55
2023-05-12T02:54:59.884Z,73.60
2023-05-12T02:57:33.168Z,63.55
2023-05-12T03:00:07.541Z,61.67
2023-05-12T03:02:39.439Z,63.58
2023-05-12T03:05:09.490Z,50.72
2023-05-12T03:07:37.703Z,48.25
2023-05-12T03:10:05.788Z,50.00
2023-05-12T03:12:33.254Z,50.22
2023-05-12T03:15:00.866Z,50.40
2023-05-12T03:17:29.620Z,40.17
2023-05-12T03:19:57.210Z,43.28
2023-05-12T03:22:24.778Z,37.33
2023-05-12T03:24:52.440Z,42.03
2023-05-12T03:27:21.266Z,38.78
2023-05-12T03:29:49.036Z,35.08
2023-05-12T03:32:17.061Z,33.30
2023-05-12T03:34:44.654Z,36.65
2023-05-12T03:37:12.870Z,28.35
2023-05-12T03:39:40.462Z,29.73
2023-05-12T03:42:08.284Z,29.83
2023-05-12T03:44:35.852Z,27.98
2023-05-12T03:47:03.363Z,28.40
2023-05-12T03:49:30.979Z,28.05
2023-05-12T03:51:58.819Z,27.40
2023-05-12T03:54:26.318Z,25.80
2023-05-12T03:56:54.302Z,25.85
2023-05-12T03:59:22.798Z,23.15
2023-05-12T04:01:53.728Z,25.52
2023-05-12T04:04:21.217Z,23.15
2023-05-12T04:06:48.794Z,23.17
2023-05-12T04:09:16.911Z,21.67
2023-05-12T04:11:44.400Z,20.52
2023-05-12T04:14:11.791Z,18.00
2023-05-12T04:16:40.995Z,17.23
2023-05-12T04:19:08.448Z,14.93
2023-05-12T04:21:36.352Z,11.85
2023-05-12T04:24:04.110Z,12.02
2023-05-12T04:26:34.362Z,12.63
2023-05-12T04:29:01.860Z,12.27
2023-05-12T04:31:29.435Z,12.73
2023-05-12T04:33:58.179Z,12.65
2023-05-12T04:36:26.357Z,14.13
2023-05-12T04:38:56.063Z,11.65
2023-05-12T04:41:23.560Z,12.50
2023-05-12T04:46:22.400Z,13.88
2023-05-12T04:48:50.021Z,12.10
2023-05-12T04:51:18.820Z,14.27
2023-05-12T04:53:46.275Z,14.05
2023-05-12T04:56:14.939Z,13.70
2023-05-12T04:58:43.134Z,11.95
2023-05-12T05:01:12.583Z,13.30
2023-05-12T05:03:41.157Z,11.15
2023-05-12T05:06:08.888Z,11.45
2023-05-12T05:08:36.287Z,12.27
2023-05-12T05:11:04.715Z,12.13
2023-05-12T05:13:32.699Z,11.05
2023-05-12T05:16:00.320Z,11.60
2023-05-12T05:18:29.497Z,10.13
2023-05-12T05:20:59.092Z,10.43
2023-05-12T05:23:27.470Z,9.02
2023-05-12T05:25:55.612Z,8.95
2023-05-12T05:28:23.863Z,9.50
2023-05-12T05:30:51.441Z,8.70
2023-05-12T05:33:19.010Z,8.00
2023-05-12T05:35:48.251Z,9.57
2023-05-12T05:38:15.871Z,8.88
2023-05-12T05:40:53.066Z,8.63
2023-05-12T05:43:22.203Z,8.93
2023-05-12T05:45:50.283Z,9.13
2023-05-12T05:48:19.892Z,9.20
2023-05-12T05:50:47.998Z,9.73
2023-05-12T05:53:15.651Z,9.02
2023-05-12T05:55:43.586Z,8.65
2023-05-12T05:58:11.957Z,9.07
2023-05-12T06:00:39.620Z,8.85
2023-05-12T06:03:07.722Z,8.90
2023-05-12T06:05:35.733Z,8.20
2023-05-12T06:08:03.372Z,8.23
2023-05-12T06:10:32.507Z,8.65
2023-05-12T06:13:00.004Z,8.95
2023-05-12T06:15:27.476Z,8.15
2023-05-12T06:17:55.127Z,8.40
2023-05-12T06:20:23.634Z,8.57
2023-05-12T06:22:51.224Z,8.45
2023-05-12T06:25:18.974Z,8.48
2023-05-12T06:27:46.687Z,8.32
2023-05-12T06:30:16.169Z,8.00
2023-05-12T06:32:44.028Z,9.27
2023-05-12T06:35:11.982Z,8.50
2023-05-12T06:37:39.532Z,8.10
2023-05-12T06:40:07.792Z,8.45
2023-05-12T06:42:35.279Z,8.10
2023-05-12T06:45:10.091Z,8.38
2023-05-12T06:47:37.555Z,8.00
2023-05-12T06:50:05.469Z,8.10
2023-05-12T06:52:33.042Z,7.13
2023-05-12T06:55:00.457Z,9.10
2023-05-12T06:57:28.094Z,9.27
2023-05-12T06:59:55.584Z,7.35
2023-05-12T07:02:23.035Z,7.50
2023-05-12T07:04:50.674Z,6.95
2023-05-12T07:07:18.115Z,7.15
2023-05-12T07:09:46.316Z,6.13
2023-05-12T07:12:13.865Z,6.55
2023-05-12T07:14:41.548Z,6.30
2023-05-12T07:17:09.090Z,5.93
2023-05-12T07:19:36.875Z,6.03
2023-05-12T07:22:04.817Z,6.22
2023-05-12T07:24:32.415Z,6.20
2023-05-12T07:26:59.861Z,6.43
2023-05-12T07:29:27.367Z,5.90
2023-05-12T07:31:54.929Z,5.53
2023-05-12T07:34:22.504Z,5.07
2023-05-12T07:36:49.928Z,5.32
2023-05-12T07:39:19.726Z,6.47
2023-05-12T07:41:47.152Z,7.70
2023-05-12T07:44:14.643Z,8.48
2023-05-12T07:46:42.301Z,7.28
2023-05-12T07:49:09.817Z,7.05
2023-05-12T07:51:37.705Z,7.63
2023-05-12T07:54:05.360Z,6.85
2023-05-12T07:56:33.239Z,7.25
2023-05-12T07:59:00.617Z,6.90
2023-05-12T08:01:28.141Z,7.38
2023-05-12T08:03:55.861Z,7.82
2023-05-12T08:06:24.931Z,8.75
2023-05-12T08:08:52.796Z,10.00
2023-05-12T08:11:20.335Z,9.07
2023-05-12T08:13:47.789Z,9.35
2023-05-12T08:16:15.249Z,9.10
2023-05-12T08:18:42.784Z,9.48
2023-05-12T08:21:10.524Z,9.15
2023-05-12T08:23:38.211Z,8.98
2023-05-12T08:26:06.149Z,10.52
2023-05-12T08:28:33.661Z,11.23
2023-05-12T08:31:03.366Z,10.52
2023-05-12T08:33:32.259Z,10.00
2023-05-12T08:35:59.861Z,12.13
2023-05-12T08:38:27.424Z,12.50
2023-05-12T08:41:16.533Z,18.17
2023-05-12T08:43:51.192Z,11.75
2023-05-12T08:46:19.204Z,11.68
2023-05-12T08:48:49.298Z,10.02
2023-05-12T08:51:19.636Z,9.43
2023-05-12T08:53:49.452Z,12.80
2023-05-12T08:58:50.486Z,12.05
2023-05-12T09:01:18.598Z,16.85
2023-05-12T09:03:46.961Z,15.25
2023-05-12T09:06:14.998Z,16.25
2023-05-12T09:08:42.728Z,17.42
2023-05-12T09:11:13.720Z,16.08
2023-05-12T09:14:08.959Z,17.58
2023-05-12T09:16:43.112Z,17.75
2023-05-12T09:19:12.836Z,19.02
2023-05-12T09:21:42.273Z,17.60
2023-05-12T09:24:09.782Z,16.35
2023-05-12T09:26:51.816Z,14.32
2023-05-12T09:29:30.800Z,15.15
2023-05-12T09:32:03.508Z,17.15
2023-05-12T09:34:38.811Z,20.27
2023-05-12T09:37:08.096Z,22.00
2023-05-12T09:39:37.022Z,17.60
2023-05-12T09:42:05.379Z,20.35
2023-05-12T09:44:33.607Z,18.35
2023-05-12T09:47:08.255Z,17.30
2023-05-12T09:49:36.062Z,16.90
2023-05-12T09:52:05.324Z,15.63
2023-05-12T09:54:34.127Z,15.38
2023-05-12T09:57:05.276Z,18.30
2023-05-12T09:59:35.168Z,13.68
2023-05-12T10:02:06.729Z,14.77
2023-05-12T10:04:49.786Z,17.55
2023-05-12T10:07:22.848Z,20.15
2023-05-12T10:09:50.695Z,17.48
2023-05-12T10:12:18.399Z,15.75
2023-05-12T10:14:46.785Z,16.00
2023-05-12T10:17:15.501Z,17.63
2023-05-12T10:19:44.553Z,15.80
2023-05-12T10:22:12.177Z,16.23
2023-05-12T10:24:41.354Z,17.40
2023-05-12T10:27:09.066Z,18.63
2023-05-12T10:29:38.664Z,17.00
2023-05-12T10:32:07.324Z,17.67
2023-05-12T10:34:37.109Z,16.02
2023-05-12T10:37:11.411Z,16.45
2023-05-12T10:39:48.274Z,19.08
2023-05-12T10:42:26.657Z,16.85
2023-05-12T10:44:55.339Z,18.83
2023-05-12T10:47:29.763Z,17.27
2023-05-12T10:49:59.022Z,17.15
2023-05-12T10:52:26.493Z,17.17
2023-05-12T10:55:01.489Z,15.55
2023-05-12T10:57:32.335Z,17.73
2023-05-12T11:00:01.963Z,15.98
2023-05-12T11:02:34.660Z,17.15
2023-05-12T11:05:10.772Z,15.90
2023-05-12T11:07:39.879Z,17.90
2023-05-12T11:10:08.610Z,16.00
2023-05-12T11:12:37.615Z,15.80
2023-05-12T11:15:07.353Z,15.15
2023-05-12T11:17:40.421Z,17.42
2023-05-12T11:20:10.303Z,16.63
2023-05-12T11:22:37.859Z,16.42
2023-05-12T11:25:12.720Z,16.15
2023-05-12T11:27:46.041Z,18.70
2023-05-12T11:30:13.952Z,18.95
2023-05-12T11:32:41.840Z,17.92
2023-05-12T11:35:10.117Z,17.58
2023-05-12T11:37:42.156Z,18.60
2023-05-12T11:40:27.622Z,20.95
2023-05-12T11:42:56.437Z,20.45
2023-05-12T11:45:29.071Z,21.83
2023-05-12T11:48:09.128Z,25.33
2023-05-12T11:50:44.848Z,24.15
2023-05-12T11:53:15.298Z,22.25
2023-05-12T11:55:51.441Z,23.25
2023-05-12T11:58:22.083Z,16.20
2023-05-12T12:00:50.956Z,25.30
2023-05-12T12:03:19.047Z,25.25
2023-05-12T12:06:01.570Z,28.17
2023-05-12T12:08:29.355Z,27.30
2023-05-12T12:10:57.061Z,24.63
2023-05-12T12:13:26.393Z,27.15
2023-05-12T12:15:53.962Z,24.60
2023-05-12T12:18:21.740Z,24.88
2023-05-12T12:20:49.379Z,21.80
2023-05-12T12:23:16.943Z,23.65
2023-05-12T12:25:44.596Z,22.83
2023-05-12T12:28:12.494Z,19.48
2023-05-12T12:30:40.017Z,20.83
2023-05-12T12:33:07.599Z,16.40
2023-05-12T12:35:35.211Z,18.35
2023-05-12T12:38:02.787Z,19.38
2023-05-12T12:40:31.259Z,17.50
2023-05-12T12:42:58.719Z,18.88
2023-05-12T12:45:26.708Z,16.13
2023-05-12T12:47:55.234Z,15.70
2023-05-12T12:50:24.995Z,14.13
2023-05-12T12:52:53.305Z,14.27
2023-05-12T12:55:21.129Z,14.18
2023-05-12T12:57:48.850Z,13.38
2023-05-12T13:00:17.628Z,13.85
2023-05-12T13:02:45.627Z,15.27
2023-05-12T13:05:13.061Z,14.80
2023-05-12T13:07:40.744Z,13.60
2023-05-12T13:10:09.840Z,14.68
2023-05-12T13:12:37.454Z,13.32
2023-05-12T13:15:06.047Z,14.55
2023-05-12T13:17:34.677Z,15.63
2023-05-12T13:20:02.852Z,15.52
2023-05-12T13:22:31.512Z,13.82
2023-05-12T13:24:58.982Z,13.27
2023-05-12T13:27:26.492Z,14.23
2023-05-12T13:29:54.080Z,15.68
2023-05-12T13:32:21.545Z,14.98
2023-05-12T13:34:49.220Z,14.27
2023-05-12T13:37:16.856Z,14.23
2023-05-12T13:39:44.342Z,16.15
2023-05-12T13:42:11.835Z,14.15
2023-05-12T13:44:39.252Z,14.90
2023-05-12T13:47:09.758Z,14.68
2023-05-12T13:49:37.633Z,14.57
2023-05-12T13:52:05.391Z,15.55
2023-05-12T13:54:32.859Z,15.02
2023-05-12T13:57:01.146Z,16.58
2023-05-12T13:59:28.658Z,19.58
2023-05-12T14:01:56.190Z,21.17
2023-05-12T14:04:23.870Z,21.38
2023-05-12T14:06:54.267Z,23.33
2023-05-12T14:09:22.053Z,22.15
2023-05-12T14:11:49.513Z,22.35
2023-05-12T14:14:17.059Z,25.95
2023-05-12T14:16:44.647Z,25.02
2023-05-12T14:19:12.524Z,25.13
2023-05-12T14:21:41.511Z,24.90
2023-05-12T14:24:09.365Z,24.20
2023-05-12T14:26:36.966Z,22.15
2023-05-12T14:29:05.582Z,22.48
2023-05-12T14:31:34.405Z,23.70
2023-05-12T14:34:03.039Z,25.00
2023-05-12T14:36:30.513Z,22.63
2023-05-12T14:38:58.068Z,20.63
2023-05-12T14:41:26.109Z,22.20
2023-05-12T14:43:53.643Z,20.83
2023-05-12T14:46:21.365Z,19.70
2023-05-12T14:48:49.122Z,20.35
2023-05-12T14:51:16.611Z,19.30
2023-05-12T14:53:44.193Z,20.35
2023-05-12T14:56:11.615Z,20.73
2023-05-12T14:58:39.252Z,18.80
2023-05-12T15:01:09.281Z,19.13
2023-05-12T15:03:37.266Z,17.85
2023-05-12T15:06:08.063Z,17.45
2023-05-12T15:08:36.101Z,17.92
2023-05-12T15:11:03.723Z,16.52
2023-05-12T15:13:31.875Z,17.50
2023-05-12T15:15:59.390Z,19.77
2023-05-12T15:18:27.050Z,18.17
2023-05-12T15:20:54.647Z,18.38
2023-05-12T15:23:22.396Z,17.73
2023-05-12T15:25:49.901Z,17.70
2023-05-12T15:28:17.700Z,16.40
2023-05-12T15:30:45.807Z,17.67
2023-05-12T15:33:13.677Z,16.67
2023-05-12T15:35:41.996Z,16.50
2023-05-12T15:38:09.528Z,15.77
2023-05-12T15:40:37.517Z,16.20
2023-05-12T15:43:05.459Z,15.18
2023-05-12T15:45:33.022Z,15.93
2023-05-12T15:48:00.556Z,15.60
2023-05-12T15:50:28.111Z,14.43
2023-05-12T15:52:56.086Z,15.50
2023-05-12T15:55:24.059Z,15.85
2023-05-12T15:57:53.814Z,15.35
2023-05-12T16:00:22.931Z,18.05
2023-05-12T16:02:50.679Z,16.88
2023-05-12T16:05:18.625Z,15.88
2023-05-12T16:07:48.243Z,14.50
2023-05-12T16:10:16.289Z,14.18
2023-05-12T16:12:46.203Z,15.60
2023-05-12T16:15:14.143Z,15.35
2023-05-12T16:17:41.745Z,16.20
2023-05-12T16:20:10.547Z,14.02
2023-05-12T16:22:38.126Z,14.50
2023-05-12T16:25:05.971Z,14.35
2023-05-12T16:27:35.836Z,14.98
2023-05-12T16:30:04.254Z,14.55
2023-05-12T16:32:32.461Z,14.50
2023-05-12T16:35:01.039Z,14.68
2023-05-12T16:37:28.937Z,15.77
2023-05-12T16:39:56.443Z,14.63
2023-05-12T16:42:24.202Z,14.15
2023-05-12T16:44:55.068Z,15.43
2023-05-12T16:47:23.067Z,15.57
2023-05-12T16:49:53.894Z,15.63
2023-05-12T16:52:21.723Z,15.57
2023-05-12T16:54:49.248Z,14.85
2023-05-12T16:57:18.591Z,15.23
2023-05-12T16:59:46.286Z,16.88
2023-05-12T17:02:13.835Z,16.63
2023-05-12T17:04:41.832Z,15.82
2023-05-12T17:07:09.986Z,16.75
2023-05-12T17:09:37.474Z,16.73
2023-05-12T17:12:06.966Z,18.65
2023-05-12T17:14:37.510Z,17.55
2023-05-12T17:17:05.162Z,16.90
2023-05-12T17:19:33.395Z,16.67
2023-05-12T17:22:01.575Z,18.75
2023-05-12T17:24:29.133Z,18.95
2023-05-12T17:26:56.569Z,18.27
2023-05-12T17:29:24.106Z,17.73
2023-05-12T17:31:51.693Z,15.05
2023-05-12T17:34:19.360Z,18.80
2023-05-12T17:36:46.821Z,18.95
2023-05-12T17:39:16.256Z,18.30
2023-05-12T17:41:44.609Z,18.23
2023-05-12T17:44:12.093Z,18.65
2023-05-12T17:46:39.633Z,18.70
2023-05-12T17:49:07.351Z,18.27
2023-05-12T17:51:35.704Z,18.70
2023-05-12T17:54:04.297Z,20.35
2023-05-12T17:56:31.824Z,18.25
2023-05-12T17:58:59.303Z,19.08
2023-05-12T18:01:26.910Z,18.67
2023-05-12T18:03:54.810Z,20.60
2023-05-12T18:06:22.422Z,18.70
2023-05-12T18:08:50.030Z,18.67
2023-05-12T18:11:17.496Z,20.65
2023-05-12T18:13:44.923Z,19.48
2023-05-12T18:16:25.028Z,19.38
2023-05-12T18:21:23.484Z,19.13
2023-05-12T18:23:50.945Z,19.77
2023-05-12T18:26:18.449Z,20.40
2023-05-12T18:28:45.932Z,19.15
2023-05-12T18:31:16.295Z,21.20
2023-05-12T18:33:47.704Z,20.27
2023-05-12T18:36:16.758Z,21.08
2023-05-12T18:38:44.911Z,20.55
2023-05-12T18:41:12.669Z,19.73
2023-05-12T18:43:40.209Z,21.40
2023-05-12T18:46:07.873Z,20.02
2023-05-12T18:48:35.431Z,21.60
2023-05-12T18:51:03.177Z,21.90
2023-05-12T18:53:30.860Z,20.42
2023-05-12T18:55:58.473Z,19.08
2023-05-12T18:58:26.057Z,19.15
2023-05-12T19:00:54.247Z,21.08
2023-05-12T19:03:22.190Z,19.88
2023-05-12T19:05:49.838Z,19.85
2023-05-12T19:08:19.352Z,20.88
2023-05-12T19:10:48.279Z,19.20
2023-05-12T19:13:15.827Z,19.77
2023-05-12T19:15:43.321Z,19.50
2023-05-12T19:18:10.982Z,19.35
2023-05-12T19:20:38.633Z,19.52
2023-05-12T19:23:06.184Z,21.65
2023-05-12T19:25:33.824Z,18.90
2023-05-12T19:28:01.677Z,18.70
2023-05-12T19:30:29.652Z,20.38
2023-05-12T19:32:57.608Z,20.25
2023-05-12T19:35:25.906Z,20.17
2023-05-12T19:37:53.408Z,20.90
2023-05-12T19:40:21.079Z,20.20
2023-05-12T19:42:48.662Z,21.45
2023-05-12T19:45:16.320Z,20.50
2023-05-12T19:47:43.844Z,19.52
2023-05-12T19:50:11.668Z,21.73
2023-05-12T19:52:39.535Z,22.27
2023-05-12T19:55:10.151Z,20.30
2023-05-12T19:57:38.497Z,20.58
2023-05-12T20:00:06.689Z,19.75
2023-05-12T20:05:07.868Z,19.88
2023-05-12T20:07:35.381Z,19.58
2023-05-12T20:10:03.429Z,19.90
2023-05-12T20:12:31.890Z,20.75
2023-05-12T20:14:59.409Z,20.13
2023-05-12T20:17:27.051Z,20.45
2023-05-12T20:19:54.714Z,19.90
2023-05-12T20:22:22.587Z,18.77
2023-05-12T20:24:50.922Z,20.35
2023-05-12T20:27:18.370Z,19.83
2023-05-12T20:29:45.973Z,20.50
2023-05-12T20:32:14.464Z,19.13
2023-05-12T20:34:42.462Z,21.85
2023-05-12T20:37:10.370Z,21.30
2023-05-12T20:39:37.781Z,21.90
2023-05-12T20:42:06.396Z,21.08
2023-05-12T20:44:33.907Z,22.98
2023-05-12T20:47:02.000Z,23.17
2023-05-12T20:49:29.768Z,24.20
2023-05-12T20:51:57.204Z,24.80
2023-05-12T20:54:24.713Z,25.40
2023-05-12T20:56:52.272Z,24.15
2023-05-12T20:59:20.321Z,24.17
2023-05-12T21:01:48.009Z,25.00
2023-05-12T21:04:15.635Z,23.67
2023-05-12T21:06:43.298Z,25.33
2023-05-12T21:09:10.780Z,25.40
2023-05-12T21:11:38.338Z,25.92
2023-05-12T21:14:05.919Z,26.15
2023-05-12T21:16:33.683Z,24.48
2023-05-12T21:19:01.153Z,27.75
2023-05-12T21:21:28.984Z,27.63
2023-05-12T21:23:56.523Z,30.33
2023-05-12T21:26:24.185Z,28.85
2023-05-12T21:28:51.787Z,27.42
2023-05-12T21:31:19.280Z,29.35
2023-05-12T21:33:47.998Z,27.52
2023-05-12T21:36:16.323Z,29.70
2023-05-12T21:38:43.826Z,28.13
2023-05-12T21:41:11.425Z,29.48
2023-05-12T21:43:38.941Z,31.55
2023-05-12T21:46:06.539Z,30.10
2023-05-12T21:48:34.119Z,30.50
2023-05-12T21:51:03.327Z,33.53
2023-05-12T21:53:30.935Z,33.90
2023-05-12T21:55:58.516Z,32.55
2023-05-12T21:58:26.403Z,32.65
2023-05-12T22:00:54.229Z,33.50
2023-05-12T22:03:22.276Z,32.47
2023-05-12T22:05:50.251Z,33.30
2023-05-12T22:08:17.909Z,32.00
2023-05-12T22:10:45.480Z,32.20
2023-05-12T22:13:13.054Z,32.05
2023-05-12T22:15:40.868Z,31.05
2023-05-12T22:18:08.348Z,32.53
2023-05-12T22:20:35.996Z,30.92
2023-05-12T22:23:03.962Z,31.45
2023-05-12T22:25:31.580Z,30.65
2023-05-12T22:27:59.115Z,30.38
2023-05-12T22:30:26.709Z,31.17
2023-05-12T22:32:54.245Z,31.67
2023-05-12T22:35:21.834Z,31.92
2023-05-12T22:37:52.478Z,31.80
2023-05-12T22:40:23.381Z,32.65
2023-05-12T22:42:51.121Z,31.35
2023-05-12T22:45:18.850Z,31.85
2023-05-12T22:47:46.518Z,31.45
2023-05-12T22:50:14.007Z,31.50
2023-05-12T22:52:41.500Z,31.73
2023-05-12T22:55:09.767Z,30.55
2023-05-12T22:57:38.918Z,31.58
2023-05-12T23:00:08.452Z,31.33
2023-05-12T23:02:37.175Z,31.60
2023-05-12T23:05:05.041Z,31.00
2023-05-12T23:07:32.501Z,31.40
2023-05-12T23:10:00.028Z,32.78
2023-05-12T23:12:27.575Z,32.63
2023-05-12T23:14:55.137Z,32.17
2023-05-12T23:17:22.748Z,32.00
2023-05-12T23:19:52.477Z,31.38
2023-05-12T23:22:20.032Z,32.35
2023-05-12T23:24:47.693Z,31.63
2023-05-12T23:27:15.207Z,31.80
2023-05-12T23:29:42.697Z,31.25
2023-05-12T23:32:10.517Z,31.23
2023-05-12T23:34:40.570Z,32.40
2023-05-12T23:37:08.128Z,31.58
2023-05-12T23:39:36.036Z,32.15
2023-05-12T23:42:04.161Z,31.67
2023-05-12T23:44:31.721Z,31.33
2023-05-12T23:46:59.346Z,31.02
2023-05-12T23:49:27.638Z,32.03
2023-05-12T23:51:55.534Z,31.63
2023-05-12T23:54:23.126Z,32.25
2023-05-12T23:56:50.769Z,32.05
2023-05-12T23:59:18.352Z,31.67
